createdAt,value
2022-12-15T00:02:03.341Z,88.50
2022-12-15T00:04:53.378Z,81.50
2022-12-15T00:07:43.085Z,93.20
2022-12-15T00:10:32.889Z,87.60
2022-12-15T00:13:22.595Z,75.30
2022-12-15T00:16:12.533Z,92.40
2022-12-15T00:19:02.801Z,87.90
2022-12-15T00:21:52.910Z,82.50
2022-12-15T00:24:42.846Z,80.70
2022-12-15T00:27:32.832Z,83.00
2022-12-15T00:30:23.128Z,80.10
2022-12-15T00:33:12.890Z,80.90
2022-12-15T00:36:02.538Z,84.50
2022-12-15T00:38:47.658Z,97.80
2022-12-15T00:41:21.135Z,92.30
2022-12-15T00:43:53.247Z,92.90
2022-12-15T00:46:43.211Z,93.20
2022-12-15T00:49:29.434Z,87.00
2022-12-15T00:52:19.262Z,88.00
2022-12-15T00:55:09.200Z,80.50
2022-12-15T00:57:59.518Z,73.70
2022-12-15T01:00:49.547Z,71.60
2022-12-15T01:03:42.075Z,67.90
2022-12-15T01:06:34.730Z,64.30
2022-12-15T01:09:26.167Z,60.70
2022-12-15T01:12:16.076Z,72.80
2022-12-15T01:15:05.711Z,68.40
2022-12-15T01:17:55.510Z,73.60
2022-12-15T01:20:27.628Z,71.60
2022-12-15T01:22:59.798Z,69.90
2022-12-15T01:25:31.966Z,79.50
2022-12-15T01:28:04.213Z,81.00
2022-12-15T01:30:36.685Z,79.70
2022-12-15T01:33:09.365Z,89.80
2022-12-15T01:35:41.584Z,80.00
2022-12-15T01:38:13.984Z,72.60
2022-12-15T01:40:53.807Z,72.30
2022-12-15T01:43:29.242Z,81.30
2022-12-15T01:46:05.929Z,93.20
2022-12-15T01:48:45.520Z,89.90
2022-12-15T01:51:25.190Z,95.20
2022-12-15T01:54:03.933Z,88.00
2022-12-15T01:56:38.867Z,90.40
2022-12-15T01:59:16.236Z,106.70
2022-12-15T02:01:49.990Z,129.00
2022-12-15T02:04:24.570Z,114.30
2022-12-15T02:06:56.935Z,129.40
2022-12-15T02:09:29.763Z,112.50
2022-12-15T02:12:08.337Z,93.90
2022-12-15T02:14:54.923Z,81.80
2022-12-15T02:17:38.277Z,78.40
2022-12-15T02:20:34.943Z,77.10
2022-12-15T02:23:35.455Z,64.90
2022-12-15T02:26:53.038Z,65.70
2022-12-15T02:29:45.784Z,75.00
2022-12-15T02:32:23.150Z,80.40
2022-12-15T02:35:02.845Z,77.60
2022-12-15T02:37:37.034Z,68.90
2022-12-15T02:40:12.303Z,66.90
2022-12-15T02:42:48.975Z,60.70
2022-12-15T02:45:25.917Z,67.00
2022-12-15T02:48:10.973Z,60.70
2022-12-15T02:50:53.615Z,52.70
2022-12-15T02:53:57.017Z,63.20
2022-12-15T02:56:35.915Z,61.40
2022-12-15T02:59:15.355Z,62.30
2022-12-15T03:01:53.827Z,64.30
2022-12-15T03:04:27.088Z,64.60
2022-12-15T03:07:03.252Z,64.80
2022-12-15T03:09:35.590Z,59.10
2022-12-15T03:12:10.665Z,64.00
2022-12-15T03:17:13.409Z,65.60
2022-12-15T03:19:45.663Z,61.50
2022-12-15T03:22:22.251Z,62.90
2022-12-15T03:24:54.444Z,59.10
2022-12-15T03:27:26.566Z,61.90
2022-12-15T03:29:58.871Z,56.50
2022-12-15T03:32:31.881Z,53.00
2022-12-15T03:35:04.090Z,57.70
2022-12-15T03:37:36.235Z,64.90
2022-12-15T03:40:11.596Z,64.00
2022-12-15T03:42:49.609Z,67.10
2022-12-15T03:45:24.303Z,68.10
2022-12-15T03:47:57.809Z,61.40
2022-12-15T03:50:31.239Z,63.00
2022-12-15T03:53:05.367Z,58.20
2022-12-15T03:55:37.717Z,56.20
2022-12-15T03:58:09.837Z,59.00
2022-12-15T04:00:41.976Z,63.60
2022-12-15T04:03:14.192Z,59.50
2022-12-15T04:05:46.314Z,60.50
2022-12-15T04:08:18.483Z,61.70
2022-12-15T04:10:50.624Z,52.60
2022-12-15T04:13:22.806Z,55.90
2022-12-15T04:15:55.118Z,58.10
2022-12-15T04:18:27.234Z,58.80
2022-12-15T04:20:59.399Z,57.80
2022-12-15T04:23:31.945Z,58.90
2022-12-15T04:26:22.193Z,60.90
2022-12-15T04:29:11.873Z,64.50
2022-12-15T04:32:02.882Z,59.80
2022-12-15T04:34:52.819Z,53.40
2022-12-15T04:37:42.623Z,53.50
2022-12-15T04:40:32.688Z,54.40
2022-12-15T04:43:23.160Z,60.30
2022-12-15T04:46:13.667Z,64.90
2022-12-15T04:49:03.465Z,68.30
2022-12-15T04:51:53.838Z,74.10
2022-12-15T04:54:43.974Z,89.70
2022-12-15T04:57:33.602Z,107.20
2022-12-15T05:00:24.251Z,78.40
2022-12-15T05:03:29.638Z,71.10
2022-12-15T05:06:19.788Z,121.60
2022-12-15T05:09:09.591Z,117.30
2022-12-15T05:11:59.858Z,99.60
2022-12-15T05:14:49.686Z,94.50
2022-12-15T05:17:41.671Z,88.80
2022-12-15T05:20:31.996Z,71.40
2022-12-15T05:23:21.857Z,99.10
2022-12-15T05:26:11.893Z,134.40
2022-12-15T05:29:01.810Z,108.30
2022-12-15T05:31:52.840Z,124.50
2022-12-15T05:34:27.410Z,178.40
2022-12-15T05:37:01.423Z,175.60
2022-12-15T05:39:33.542Z,159.20
2022-12-15T05:42:05.913Z,129.30
2022-12-15T05:44:37.903Z,103.30
2022-12-15T05:47:11.837Z,89.20
2022-12-15T05:49:43.987Z,77.10
2022-12-15T05:52:16.046Z,75.00
2022-12-15T05:54:48.188Z,74.10
2022-12-15T05:57:20.306Z,77.60
2022-12-15T05:59:52.449Z,85.50
2022-12-15T06:02:24.549Z,75.70
2022-12-15T06:04:56.850Z,62.70
2022-12-15T06:07:29.058Z,71.50
2022-12-15T06:10:01.225Z,79.20
2022-12-15T06:12:33.679Z,68.30
2022-12-15T06:15:07.060Z,61.50
2022-12-15T06:17:39.240Z,61.80
2022-12-15T06:20:12.968Z,65.70
2022-12-15T06:22:49.688Z,64.70
2022-12-15T06:25:22.352Z,68.70
2022-12-15T06:27:59.941Z,66.60
2022-12-15T06:30:33.879Z,67.20
2022-12-15T06:33:05.944Z,56.50
2022-12-15T06:35:39.907Z,63.40
2022-12-15T06:38:12.100Z,62.70
2022-12-15T06:40:44.345Z,64.30
2022-12-15T06:43:16.537Z,63.60
2022-12-15T06:45:52.523Z,88.30
2022-12-15T06:48:25.686Z,80.80
2022-12-15T06:50:57.942Z,72.20
2022-12-15T06:53:30.375Z,67.50
2022-12-15T06:56:05.008Z,72.20
2022-12-15T06:58:37.226Z,66.10
2022-12-15T07:01:09.938Z,70.50
2022-12-15T07:03:42.758Z,73.30
2022-12-15T07:06:17.239Z,74.30
2022-12-15T07:08:53.891Z,89.40
2022-12-15T07:11:26.439Z,84.70
2022-12-15T07:13:58.530Z,83.40
2022-12-15T07:16:31.369Z,85.80
2022-12-15T07:19:03.762Z,76.40
2022-12-15T07:21:36.211Z,76.10
2022-12-15T07:24:10.416Z,84.90
2022-12-15T07:26:42.799Z,83.70
2022-12-15T07:29:21.135Z,115.50
2022-12-15T07:31:56.156Z,126.80
2022-12-15T07:34:28.368Z,95.90
2022-12-15T07:37:00.486Z,86.60
2022-12-15T07:39:32.656Z,108.90
2022-12-15T07:42:04.926Z,95.30
2022-12-15T07:44:39.064Z,84.30
2022-12-15T07:47:11.261Z,93.00
2022-12-15T07:49:43.350Z,90.90
2022-12-15T07:52:15.675Z,78.10
2022-12-15T07:54:48.127Z,76.20
2022-12-15T07:57:21.032Z,70.50
2022-12-15T07:59:53.354Z,74.40
2022-12-15T08:02:25.464Z,71.90
2022-12-15T08:04:57.869Z,72.80
2022-12-15T08:07:29.994Z,72.70
2022-12-15T08:10:02.079Z,72.80
2022-12-15T08:12:34.297Z,71.10
2022-12-15T08:15:09.662Z,72.70
2022-12-15T08:17:41.937Z,76.10
2022-12-15T08:20:15.366Z,77.20
2022-12-15T08:22:47.552Z,73.10
2022-12-15T08:25:19.769Z,73.10
2022-12-15T08:27:54.147Z,73.90
2022-12-15T08:30:26.445Z,90.50
2022-12-15T08:32:58.584Z,88.30
2022-12-15T08:35:55.094Z,100.20
2022-12-15T08:38:22.783Z,90.10
2022-12-15T08:40:54.977Z,83.80
2022-12-15T08:43:27.118Z,93.30
2022-12-15T08:46:00.657Z,96.60
2022-12-15T08:48:32.825Z,94.30
2022-12-15T08:51:05.410Z,83.90
2022-12-15T08:53:39.301Z,81.40
2022-12-15T08:56:14.158Z,84.10
2022-12-15T08:58:46.794Z,73.50
2022-12-15T09:01:23.662Z,77.70
2022-12-15T09:03:58.078Z,82.70
2022-12-15T09:06:33.275Z,77.10
2022-12-15T09:09:08.512Z,82.20
2022-12-15T09:11:40.686Z,91.20
2022-12-15T09:14:12.814Z,90.40
2022-12-15T09:16:45.118Z,96.90
2022-12-15T09:19:17.393Z,63.90
2022-12-15T09:21:49.617Z,63.20
2022-12-15T09:24:32.239Z,70.20
2022-12-15T09:27:07.080Z,71.80
2022-12-15T09:29:39.198Z,83.80
2022-12-15T09:32:14.224Z,90.90
2022-12-15T09:34:46.662Z,108.30
2022-12-15T09:37:18.929Z,108.80
2022-12-15T09:39:51.071Z,91.80
2022-12-15T09:42:29.051Z,90.20
2022-12-15T09:45:08.541Z,95.60
2022-12-15T09:47:46.289Z,95.10
2022-12-15T09:50:21.506Z,84.30
2022-12-15T09:52:59.432Z,90.50
2022-12-15T09:55:33.347Z,108.90
2022-12-15T09:58:15.945Z,67.90
2022-12-15T10:00:55.894Z,81.90
2022-12-15T10:03:45.798Z,176.70
2022-12-15T10:06:23.197Z,309.30
2022-12-15T10:09:01.622Z,190.60
2022-12-15T10:11:48.542Z,142.60
2022-12-15T10:14:33.068Z,297.30
2022-12-15T10:17:21.564Z,288.00
2022-12-15T10:20:02.160Z,335.20
2022-12-15T10:22:37.377Z,217.00
2022-12-15T10:25:23.558Z,148.40
2022-12-15T10:28:35.650Z,115.20
2022-12-15T10:31:19.612Z,94.40
2022-12-15T10:33:59.009Z,103.70
2022-12-15T10:36:31.794Z,95.60
2022-12-15T10:39:03.933Z,103.80
2022-12-15T10:41:36.146Z,125.30
2022-12-15T10:44:32.034Z,134.00
2022-12-15T10:47:12.770Z,104.30
2022-12-15T10:49:44.935Z,84.20
2022-12-15T10:52:25.068Z,113.00
2022-12-15T10:54:58.031Z,160.50
2022-12-15T10:57:33.685Z,168.90
2022-12-15T11:00:29.480Z,98.40
2022-12-15T11:03:02.278Z,138.90
2022-12-15T11:05:36.092Z,132.40
2022-12-15T11:08:19.383Z,89.80
2022-12-15T11:11:13.505Z,97.10
2022-12-15T11:14:07.357Z,111.60
2022-12-15T11:16:48.951Z,115.80
2022-12-15T11:19:30.047Z,85.00
2022-12-15T11:22:10.434Z,113.10
2022-12-15T11:24:51.177Z,89.90
2022-12-15T11:27:29.541Z,129.50
2022-12-15T11:30:11.718Z,120.70
2022-12-15T11:32:47.368Z,112.90
2022-12-15T11:35:24.170Z,108.90
2022-12-15T11:38:02.381Z,118.80
2022-12-15T11:40:39.884Z,105.80
2022-12-15T11:43:32.782Z,88.00
2022-12-15T11:46:24.486Z,94.20
2022-12-15T11:49:16.509Z,111.40
2022-12-15T11:51:54.980Z,93.40
2022-12-15T11:54:36.313Z,126.60
2022-12-15T11:57:24.890Z,99.20
2022-12-15T12:00:08.766Z,102.20
2022-12-15T12:03:00.722Z,111.10
2022-12-15T12:05:49.446Z,109.90
2022-12-15T12:08:47.086Z,115.30
2022-12-15T12:11:29.225Z,111.70
2022-12-15T12:14:29.594Z,117.50
2022-12-15T12:17:08.263Z,129.90
2022-12-15T12:19:45.578Z,111.50
2022-12-15T12:22:30.677Z,112.20
2022-12-15T12:25:06.272Z,117.00
2022-12-15T12:27:48.640Z,107.00
2022-12-15T12:30:25.149Z,121.40
2022-12-15T12:33:04.360Z,132.20
2022-12-15T12:35:45.692Z,124.70
2022-12-15T12:38:31.688Z,136.80
2022-12-15T12:41:09.176Z,139.90
2022-12-15T12:43:44.548Z,164.00
2022-12-15T12:46:26.723Z,146.30
2022-12-15T12:49:05.215Z,124.60
2022-12-15T12:51:39.302Z,122.10
2022-12-15T12:54:44.706Z,110.60
2022-12-15T13:01:27.594Z,109.50
2022-12-15T13:04:11.930Z,112.10
2022-12-15T13:07:11.519Z,127.40
2022-12-15T13:09:47.767Z,145.40
2022-12-15T13:12:51.649Z,126.50
2022-12-15T13:15:39.446Z,118.30
2022-12-15T13:18:19.925Z,128.90
2022-12-15T13:20:55.150Z,142.40
2022-12-15T13:23:47.132Z,142.40
2022-12-15T13:26:22.657Z,128.60
2022-12-15T13:28:59.233Z,131.20
2022-12-15T13:31:43.210Z,116.20
2022-12-15T13:34:24.380Z,102.50
2022-12-15T13:37:01.332Z,118.00
2022-12-15T13:39:51.777Z,145.40
2022-12-15T13:42:45.374Z,126.00
2022-12-15T13:45:36.617Z,155.40
2022-12-15T13:48:19.275Z,114.20
2022-12-15T13:50:57.950Z,161.40
2022-12-15T13:53:34.083Z,149.10
2022-12-15T13:58:59.110Z,129.40
2022-12-15T14:01:33.690Z,138.50
2022-12-15T14:04:15.923Z,115.60
2022-12-15T14:06:54.198Z,126.30
2022-12-15T14:09:32.359Z,118.70
2022-12-15T14:12:07.290Z,127.60
2022-12-15T14:14:49.226Z,168.80
2022-12-15T14:17:21.917Z,232.30
2022-12-15T14:19:54.165Z,189.00
2022-12-15T14:22:30.180Z,143.60
2022-12-15T14:25:05.204Z,194.70
2022-12-15T14:27:37.323Z,185.20
2022-12-15T14:30:19.428Z,186.10
2022-12-15T14:32:55.587Z,207.20
2022-12-15T14:35:37.842Z,232.60
2022-12-15T14:38:14.260Z,156.00
2022-12-15T14:40:49.167Z,166.00
2022-12-15T14:46:06.448Z,226.40
2022-12-15T14:48:43.386Z,281.80
2022-12-15T14:51:17.467Z,226.20
2022-12-15T14:53:53.450Z,686.80
2022-12-15T14:56:31.180Z,436.80
2022-12-15T14:59:05.885Z,539.10
2022-12-15T15:01:41.388Z,357.30
2022-12-15T15:03:16.116Z,113.00
2022-12-15T15:04:29.323Z,166.70
2022-12-15T15:07:03.533Z,215.60
2022-12-15T15:09:40.369Z,160.80
2022-12-15T15:12:18.300Z,161.90
2022-12-15T15:14:54.599Z,196.90
2022-12-15T15:17:32.303Z,369.70
2022-12-15T15:20:07.179Z,300.40
2022-12-15T15:22:42.039Z,201.70
2022-12-15T15:25:39.996Z,150.30
2022-12-15T15:28:25.316Z,185.70
2022-12-15T15:31:00.702Z,255.60
2022-12-15T15:33:33.310Z,183.10
2022-12-15T15:36:11.471Z,139.60
2022-12-15T15:38:46.754Z,156.40
2022-12-15T15:41:22.822Z,204.90
2022-12-15T15:43:54.938Z,197.80
2022-12-15T15:46:30.136Z,262.30
2022-12-15T15:49:06.727Z,303.10
2022-12-15T15:51:39.046Z,337.20
2022-12-15T15:54:17.665Z,206.10
2022-12-15T15:56:49.789Z,148.20
2022-12-15T15:59:22.896Z,156.40
2022-12-15T16:01:57.797Z,149.10
2022-12-15T16:04:30.332Z,136.10
2022-12-15T16:07:02.474Z,115.40
2022-12-15T16:09:36.002Z,119.30
2022-12-15T16:12:11.623Z,107.70
2022-12-15T16:14:43.770Z,86.70
2022-12-15T16:17:17.268Z,126.30
2022-12-15T16:19:50.035Z,146.80
2022-12-15T16:22:23.675Z,135.90
2022-12-15T16:24:56.535Z,110.70
2022-12-15T16:27:28.702Z,94.70
2022-12-15T16:30:00.844Z,110.80
2022-12-15T16:32:33.349Z,120.40
2022-12-15T16:35:06.053Z,104.20
2022-12-15T16:37:39.721Z,117.60
2022-12-15T16:40:20.540Z,125.90
2022-12-15T16:42:58.686Z,135.30
2022-12-15T16:45:32.211Z,145.20
2022-12-15T16:48:04.497Z,141.60
2022-12-15T16:50:39.343Z,149.20
2022-12-15T16:53:18.471Z,148.30
2022-12-15T16:55:56.704Z,142.90
2022-12-15T16:58:30.800Z,149.60
2022-12-15T17:01:04.048Z,156.30
2022-12-15T17:03:36.481Z,157.50
2022-12-15T17:06:10.359Z,229.90
2022-12-15T17:08:45.661Z,325.10
2022-12-15T17:11:21.361Z,161.10
2022-12-15T17:13:55.271Z,582.80
2022-12-15T17:16:29.481Z,343.20
2022-12-15T17:19:01.756Z,418.80
2022-12-15T17:21:36.767Z,342.40
2022-12-15T17:24:13.710Z,371.20
2022-12-15T17:26:46.211Z,291.80
2022-12-15T17:29:20.261Z,436.60
2022-12-15T17:31:52.670Z,281.90
2022-12-15T17:34:31.362Z,130.00
2022-12-15T17:37:06.365Z,128.40
2022-12-15T17:39:38.841Z,143.10
2022-12-15T17:42:19.733Z,204.50
2022-12-15T17:44:52.192Z,201.80
2022-12-15T17:47:25.554Z,127.00
2022-12-15T17:49:57.727Z,135.90
2022-12-15T17:52:34.526Z,145.10
2022-12-15T17:55:18.500Z,150.30
2022-12-15T17:57:51.488Z,131.70
2022-12-15T18:00:28.415Z,132.70
2022-12-15T18:03:01.814Z,108.20
2022-12-15T18:05:34.789Z,109.20
2022-12-15T18:08:15.264Z,121.70
2022-12-15T18:10:48.533Z,125.70
2022-12-15T18:13:23.082Z,124.10
2022-12-15T18:15:56.346Z,142.60
2022-12-15T18:18:28.622Z,153.50
2022-12-15T18:21:04.527Z,124.10
2022-12-15T18:23:37.363Z,112.50
2022-12-15T18:26:10.758Z,129.60
2022-12-15T18:28:44.052Z,127.10
2022-12-15T18:31:22.265Z,110.80
2022-12-15T18:34:00.961Z,125.20
2022-12-15T18:36:35.434Z,127.20
2022-12-15T18:39:19.857Z,132.80
2022-12-15T18:41:54.818Z,190.60
2022-12-15T18:44:28.971Z,126.00
2022-12-15T18:47:01.634Z,126.80
2022-12-15T18:49:33.912Z,133.30
2022-12-15T18:52:06.645Z,152.50
2022-12-15T18:54:39.117Z,151.60
2022-12-15T18:57:27.163Z,158.50
2022-12-15T19:00:04.374Z,143.00
2022-12-15T19:02:36.646Z,136.30
2022-12-15T19:05:27.621Z,159.10
2022-12-15T19:08:03.896Z,144.70
2022-12-15T19:10:38.569Z,172.60
2022-12-15T19:13:15.239Z,225.70
2022-12-15T19:15:47.921Z,263.40
2022-12-15T19:18:39.031Z,299.20
2022-12-15T19:21:44.611Z,159.40
2022-12-15T19:24:18.830Z,109.00
2022-12-15T19:26:51.020Z,102.90
2022-12-15T19:29:23.994Z,92.30
2022-12-15T19:31:56.140Z,101.00
2022-12-15T19:34:28.339Z,195.40
2022-12-15T19:37:02.380Z,284.20
2022-12-15T19:39:37.186Z,390.20
2022-12-15T19:42:18.979Z,142.00
2022-12-15T19:44:52.248Z,270.80
2022-12-15T19:47:24.393Z,149.40
2022-12-15T19:49:56.534Z,110.30
2022-12-15T19:52:29.421Z,105.60
2022-12-15T19:55:02.412Z,104.50
2022-12-15T19:57:34.738Z,118.40
2022-12-15T20:00:15.547Z,168.00
2022-12-15T20:02:48.175Z,408.70
2022-12-15T20:05:21.420Z,325.00
2022-12-15T20:07:55.691Z,165.90
2022-12-15T20:10:32.501Z,138.40
2022-12-15T20:13:05.048Z,125.80
2022-12-15T20:15:37.671Z,99.30
2022-12-15T20:18:10.122Z,179.30
2022-12-15T20:20:45.210Z,143.00
2022-12-15T20:25:50.799Z,137.30
2022-12-15T20:28:25.757Z,126.80
2022-12-15T20:33:29.973Z,95.70
2022-12-15T20:36:02.416Z,115.80
2022-12-15T20:38:35.914Z,125.30
2022-12-15T20:41:08.206Z,121.60
2022-12-15T20:43:40.793Z,119.00
2022-12-15T20:46:18.800Z,121.20
2022-12-15T20:48:53.011Z,158.00
2022-12-15T20:51:27.124Z,124.80
2022-12-15T20:54:01.675Z,235.70
2022-12-15T20:56:33.841Z,163.80
2022-12-15T20:59:06.215Z,177.20
2022-12-15T21:01:40.272Z,111.60
2022-12-15T21:04:25.504Z,108.70
2022-12-15T21:06:58.224Z,109.90
2022-12-15T21:09:31.221Z,122.10
2022-12-15T21:12:09.043Z,218.20
2022-12-15T21:14:41.498Z,151.70
2022-12-15T21:17:17.410Z,118.50
2022-12-15T21:19:49.954Z,191.50
2022-12-15T21:22:25.219Z,126.60
2022-12-15T21:25:00.511Z,98.00
2022-12-15T21:27:32.730Z,107.60
2022-12-15T21:30:07.753Z,105.90
2022-12-15T21:35:14.208Z,101.40
2022-12-15T21:37:47.805Z,116.20
2022-12-15T21:40:24.542Z,121.80
2022-12-15T21:42:57.827Z,116.80
2022-12-15T21:45:29.992Z,98.10
2022-12-15T21:48:19.923Z,103.30
2022-12-15T21:50:52.435Z,103.10
2022-12-15T21:53:25.109Z,193.30
2022-12-15T21:55:57.915Z,137.20
2022-12-15T21:58:30.439Z,154.70
2022-12-15T22:01:03.671Z,104.20
2022-12-15T22:03:37.237Z,87.30
2022-12-15T22:06:17.699Z,89.50
2022-12-15T22:08:50.943Z,157.10
2022-12-15T22:11:27.284Z,140.30
2022-12-15T22:14:03.396Z,100.60
2022-12-15T22:16:35.615Z,154.20
2022-12-15T22:19:14.620Z,225.50
2022-12-15T22:21:46.765Z,122.50
2022-12-15T22:24:19.216Z,104.50
2022-12-15T22:26:51.684Z,99.00
2022-12-15T22:29:25.160Z,97.30
2022-12-15T22:31:57.788Z,146.50
2022-12-15T22:34:30.801Z,199.90
2022-12-15T22:37:03.046Z,137.30
2022-12-15T22:39:35.342Z,162.70
2022-12-15T22:42:12.120Z,127.80
2022-12-15T22:44:45.312Z,114.00
2022-12-15T22:47:17.654Z,329.90
2022-12-15T22:49:49.929Z,385.80
2022-12-15T22:52:24.227Z,195.30
2022-12-15T22:54:58.515Z,161.60
2022-12-15T22:57:31.015Z,113.00
2022-12-15T23:00:07.479Z,80.00
2022-12-15T23:02:43.694Z,75.90
2022-12-15T23:05:19.200Z,256.00
2022-12-15T23:07:51.591Z,203.00
2022-12-15T23:10:42.092Z,208.90
2022-12-15T23:13:14.233Z,96.50
2022-12-15T23:16:04.353Z,102.40
2022-12-15T23:18:36.720Z,278.20
2022-12-15T23:21:09.783Z,97.00
2022-12-15T23:23:41.903Z,89.70
2022-12-15T23:26:14.993Z,85.90
2022-12-15T23:28:47.441Z,84.60
2022-12-15T23:31:20.242Z,85.90
2022-12-15T23:33:52.931Z,81.40
2022-12-15T23:36:25.558Z,88.40
2022-12-15T23:39:00.186Z,98.50
2022-12-15T23:41:33.198Z,111.70
2022-12-15T23:44:05.725Z,96.50
2022-12-15T23:46:37.985Z,87.90
2022-12-15T23:49:10.140Z,83.50
2022-12-15T23:51:42.434Z,112.30
2022-12-15T23:54:14.577Z,115.70
2022-12-15T23:56:46.720Z,102.00
2022-12-15T23:59:18.913Z,101.30
